sensor_id;sensor_type;location;lat;lon;timestamp;pressure;altitude;pressure_sealevel;temperature;humidity
31195;BME280;17819;36.316;-93.164;2022-07-06T00:00:33;114490.28;;;-146.31;26.09
31195;BME280;17819;36.316;-93.164;2022-07-06T00:02:37;114490.28;;;-146.31;26.58
31195;BME280;17819;36.316;-93.164;2022-07-06T00:04:41;114490.28;;;-146.31;26.54
31195;BME280;17819;36.316;-93.164;2022-07-06T00:06:45;114490.28;;;-146.31;27.28
31195;BME280;17819;36.316;-93.164;2022-07-06T00:08:49;114490.28;;;-146.31;26.85
31195;BME280;17819;36.316;-93.164;2022-07-06T00:10:53;114490.28;;;-146.31;26.33
31195;BME280;17819;36.316;-93.164;2022-07-06T00:12:57;114490.28;;;-146.31;26.14
31195;BME280;17819;36.316;-93.164;2022-07-06T00:15:01;114490.28;;;-146.31;26.86
31195;BME280;17819;36.316;-93.164;2022-07-06T00:17:08;114490.28;;;-146.31;26.90
31195;BME280;17819;36.316;-93.164;2022-07-06T00:19:12;114490.28;;;-146.31;27.19
31195;BME280;17819;36.316;-93.164;2022-07-06T00:21:17;114490.28;;;-146.31;27.11
31195;BME280;17819;36.316;-93.164;2022-07-06T00:23:20;114490.28;;;-146.31;26.73
31195;BME280;17819;36.316;-93.164;2022-07-06T00:25:24;114490.28;;;-146.31;26.52
31195;BME280;17819;36.316;-93.164;2022-07-06T00:27:28;114490.28;;;-146.31;26.72
31195;BME280;17819;36.316;-93.164;2022-07-06T00:29:33;114490.28;;;-146.31;26.81
31195;BME280;17819;36.316;-93.164;2022-07-06T00:31:42;114490.28;;;-146.31;27.43
31195;BME280;17819;36.316;-93.164;2022-07-06T00:34:08;114490.28;;;-146.31;27.46
31195;BME280;17819;36.316;-93.164;2022-07-06T00:36:15;114490.28;;;-146.31;27.52
31195;BME280;17819;36.316;-93.164;2022-07-06T00:38:20;114490.28;;;-146.31;28.33
31195;BME280;17819;36.316;-93.164;2022-07-06T00:40:25;114490.28;;;-146.31;28.25
31195;BME280;17819;36.316;-93.164;2022-07-06T00:42:30;114490.28;;;-146.31;28.23
31195;BME280;17819;36.316;-93.164;2022-07-06T00:44:41;114490.28;;;-146.31;28.52
31195;BME280;17819;36.316;-93.164;2022-07-06T00:46:48;114490.28;;;-146.31;28.86
31195;BME280;17819;36.316;-93.164;2022-07-06T00:48:52;114490.28;;;-146.31;28.69
31195;BME280;17819;36.316;-93.164;2022-07-06T00:50:56;114490.28;;;-146.31;29.35
31195;BME280;17819;36.316;-93.164;2022-07-06T00:53:02;114490.28;;;-146.31;30.65
31195;BME280;17819;36.316;-93.164;2022-07-06T00:55:12;114490.28;;;-146.31;31.25
31195;BME280;17819;36.316;-93.164;2022-07-06T00:57:17;114490.28;;;-146.31;31.71
31195;BME280;17819;36.316;-93.164;2022-07-06T00:59:22;114490.28;;;-146.31;32.54
31195;BME280;17819;36.316;-93.164;2022-07-06T01:01:26;114490.28;;;-146.31;33.11
31195;BME280;17819;36.316;-93.164;2022-07-06T01:03:30;114490.28;;;-146.31;33.91
31195;BME280;17819;36.316;-93.164;2022-07-06T01:05:34;114490.28;;;-146.31;34.25
31195;BME280;17819;36.316;-93.164;2022-07-06T01:07:39;114490.28;;;-146.31;34.69
31195;BME280;17819;36.316;-93.164;2022-07-06T01:09:43;114490.28;;;-146.31;35.08
31195;BME280;17819;36.316;-93.164;2022-07-06T01:11:50;114490.28;;;-146.31;35.32
31195;BME280;17819;36.316;-93.164;2022-07-06T01:13:57;114490.28;;;-146.31;35.67
31195;BME280;17819;36.316;-93.164;2022-07-06T01:16:01;114490.28;;;-146.31;35.98
31195;BME280;17819;36.316;-93.164;2022-07-06T01:18:05;114490.28;;;-146.31;36.50
31195;BME280;17819;36.316;-93.164;2022-07-06T01:22:15;114490.28;;;-146.31;37.44
31195;BME280;17819;36.316;-93.164;2022-07-06T01:24:19;114490.28;;;-146.31;37.89
31195;BME280;17819;36.316;-93.164;2022-07-06T01:26:22;114490.28;;;-146.31;38.07
31195;BME280;17819;36.316;-93.164;2022-07-06T01:28:27;114490.28;;;-146.31;38.34
31195;BME280;17819;36.316;-93.164;2022-07-06T01:30:34;114490.28;;;-146.31;38.88
31195;BME280;17819;36.316;-93.164;2022-07-06T01:32:41;114490.28;;;-146.31;39.15
31195;BME280;17819;36.316;-93.164;2022-07-06T01:34:50;114490.28;;;-146.31;39.68
31195;BME280;17819;36.316;-93.164;2022-07-06T01:36:54;114490.28;;;-146.31;40.17
31195;BME280;17819;36.316;-93.164;2022-07-06T01:38:58;114490.28;;;-146.31;39.91
31195;BME280;17819;36.316;-93.164;2022-07-06T01:41:07;114490.28;;;-146.31;40.63
31195;BME280;17819;36.316;-93.164;2022-07-06T01:43:12;114490.28;;;-146.31;41.17
31195;BME280;17819;36.316;-93.164;2022-07-06T01:45:16;114490.28;;;-146.31;41.86
31195;BME280;17819;36.316;-93.164;2022-07-06T01:47:21;114490.28;;;-146.31;41.51
31195;BME280;17819;36.316;-93.164;2022-07-06T01:49:26;114490.28;;;-146.31;42.61
31195;BME280;17819;36.316;-93.164;2022-07-06T01:51:30;114490.28;;;-146.31;42.14
31195;BME280;17819;36.316;-93.164;2022-07-06T01:53:34;114490.28;;;-146.31;42.56
31195;BME280;17819;36.316;-93.164;2022-07-06T01:55:39;114490.28;;;-146.31;42.90
31195;BME280;17819;36.316;-93.164;2022-07-06T01:57:44;114490.28;;;-146.31;42.96
31195;BME280;17819;36.316;-93.164;2022-07-06T01:59:49;114490.28;;;-146.31;42.81
31195;BME280;17819;36.316;-93.164;2022-07-06T02:01:53;114490.28;;;-146.31;43.54
31195;BME280;17819;36.316;-93.164;2022-07-06T02:03:57;114490.28;;;-146.31;43.43
31195;BME280;17819;36.316;-93.164;2022-07-06T02:06:02;114490.28;;;-146.31;43.67
31195;BME280;17819;36.316;-93.164;2022-07-06T02:08:06;114490.28;;;-146.31;44.86
31195;BME280;17819;36.316;-93.164;2022-07-06T02:10:10;114490.28;;;-146.31;45.09
31195;BME280;17819;36.316;-93.164;2022-07-06T02:12:14;114490.28;;;-146.31;45.32
31195;BME280;17819;36.316;-93.164;2022-07-06T02:14:18;114490.28;;;-146.31;45.64
31195;BME280;17819;36.316;-93.164;2022-07-06T02:16:23;114490.28;;;-146.31;45.62
31195;BME280;17819;36.316;-93.164;2022-07-06T02:18:28;114490.28;;;-146.31;46.27
31195;BME280;17819;36.316;-93.164;2022-07-06T02:20:32;114490.28;;;-146.31;46.82
31195;BME280;17819;36.316;-93.164;2022-07-06T02:22:36;114490.28;;;-146.31;46.12
31195;BME280;17819;36.316;-93.164;2022-07-06T02:24:41;114490.28;;;-146.31;47.75
31195;BME280;17819;36.316;-93.164;2022-07-06T02:26:45;114490.28;;;-146.31;48.47
31195;BME280;17819;36.316;-93.164;2022-07-06T02:28:50;114490.28;;;-146.31;49.09
31195;BME280;17819;36.316;-93.164;2022-07-06T02:30:55;114490.28;;;-146.31;49.17
31195;BME280;17819;36.316;-93.164;2022-07-06T02:33:01;114490.28;;;-146.31;49.84
31195;BME280;17819;36.316;-93.164;2022-07-06T02:35:06;114490.28;;;-146.31;49.86
31195;BME280;17819;36.316;-93.164;2022-07-06T02:37:12;114490.28;;;-146.31;50.71
31195;BME280;17819;36.316;-93.164;2022-07-06T02:39:17;114490.28;;;-146.31;51.05
31195;BME280;17819;36.316;-93.164;2022-07-06T02:41:22;114490.28;;;-146.31;51.48
31195;BME280;17819;36.316;-93.164;2022-07-06T02:43:26;114490.28;;;-146.31;51.27
31195;BME280;17819;36.316;-93.164;2022-07-06T02:45:31;114490.28;;;-146.31;52.15
31195;BME280;17819;36.316;-93.164;2022-07-06T02:47:35;114490.28;;;-146.31;51.45
31195;BME280;17819;36.316;-93.164;2022-07-06T02:49:39;114490.28;;;-146.31;52.40
31195;BME280;17819;36.316;-93.164;2022-07-06T02:51:45;114490.28;;;-146.31;52.58
31195;BME280;17819;36.316;-93.164;2022-07-06T02:53:49;114490.28;;;-146.31;52.84
31195;BME280;17819;36.316;-93.164;2022-07-06T02:55:52;114490.28;;;-146.31;53.28
31195;BME280;17819;36.316;-93.164;2022-07-06T02:57:56;114490.28;;;-146.31;54.01
31195;BME280;17819;36.316;-93.164;2022-07-06T03:00:01;114490.28;;;-146.31;53.77
31195;BME280;17819;36.316;-93.164;2022-07-06T03:02:06;114490.28;;;-146.31;53.96
31195;BME280;17819;36.316;-93.164;2022-07-06T03:04:10;114490.28;;;-146.31;54.58
31195;BME280;17819;36.316;-93.164;2022-07-06T03:06:15;114490.28;;;-146.31;54.38
31195;BME280;17819;36.316;-93.164;2022-07-06T03:08:20;114490.28;;;-146.31;54.91
31195;BME280;17819;36.316;-93.164;2022-07-06T03:10:25;114490.28;;;-146.31;54.55
31195;BME280;17819;36.316;-93.164;2022-07-06T03:12:30;114490.28;;;-146.31;54.78
31195;BME280;17819;36.316;-93.164;2022-07-06T03:14:37;114490.28;;;-146.31;54.52
31195;BME280;17819;36.316;-93.164;2022-07-06T03:16:43;114490.28;;;-146.31;54.98
31195;BME280;17819;36.316;-93.164;2022-07-06T03:18:53;114490.28;;;-146.31;54.75
31195;BME280;17819;36.316;-93.164;2022-07-06T03:20:57;114490.28;;;-146.31;54.46
31195;BME280;17819;36.316;-93.164;2022-07-06T03:23:02;114490.28;;;-146.31;55.08
31195;BME280;17819;36.316;-93.164;2022-07-06T03:25:05;114490.28;;;-146.31;54.94
31195;BME280;17819;36.316;-93.164;2022-07-06T03:27:12;114490.28;;;-146.31;55.64
31195;BME280;17819;36.316;-93.164;2022-07-06T03:29:16;114490.28;;;-146.31;54.71
31195;BME280;17819;36.316;-93.164;2022-07-06T03:31:21;114490.28;;;-146.31;55.56
31195;BME280;17819;36.316;-93.164;2022-07-06T03:33:26;114490.28;;;-146.31;55.66
31195;BME280;17819;36.316;-93.164;2022-07-06T03:35:30;114490.28;;;-146.31;54.84
31195;BME280;17819;36.316;-93.164;2022-07-06T03:37:36;114490.28;;;-146.31;55.56
31195;BME280;17819;36.316;-93.164;2022-07-06T03:39:40;114490.28;;;-146.31;55.96
31195;BME280;17819;36.316;-93.164;2022-07-06T03:41:46;114490.28;;;-146.31;56.17
31195;BME280;17819;36.316;-93.164;2022-07-06T03:43:50;114490.28;;;-146.31;55.88
31195;BME280;17819;36.316;-93.164;2022-07-06T03:45:54;114490.28;;;-146.31;57.22
31195;BME280;17819;36.316;-93.164;2022-07-06T03:47:58;114490.28;;;-146.31;56.78
31195;BME280;17819;36.316;-93.164;2022-07-06T03:50:04;114490.28;;;-146.31;56.89
31195;BME280;17819;36.316;-93.164;2022-07-06T03:52:09;114490.28;;;-146.31;56.99
31195;BME280;17819;36.316;-93.164;2022-07-06T03:54:19;114490.28;;;-146.31;57.22
31195;BME280;17819;36.316;-93.164;2022-07-06T03:56:24;114490.28;;;-146.31;57.18
31195;BME280;17819;36.316;-93.164;2022-07-06T03:58:40;114490.28;;;-146.31;57.97
31195;BME280;17819;36.316;-93.164;2022-07-06T04:00:45;114490.28;;;-146.31;57.58
31195;BME280;17819;36.316;-93.164;2022-07-06T04:02:51;114490.28;;;-146.31;57.95
31195;BME280;17819;36.316;-93.164;2022-07-06T04:05:00;114490.28;;;-146.31;57.72
31195;BME280;17819;36.316;-93.164;2022-07-06T04:07:04;114490.28;;;-146.31;58.08
31195;BME280;17819;36.316;-93.164;2022-07-06T04:09:09;114490.28;;;-146.31;57.91
31195;BME280;17819;36.316;-93.164;2022-07-06T04:11:15;114490.28;;;-146.31;57.77
31195;BME280;17819;36.316;-93.164;2022-07-06T04:13:20;114490.28;;;-146.31;57.91
31195;BME280;17819;36.316;-93.164;2022-07-06T04:15:25;114490.28;;;-146.31;57.57
31195;BME280;17819;36.316;-93.164;2022-07-06T04:17:29;114490.28;;;-146.31;57.56
31195;BME280;17819;36.316;-93.164;2022-07-06T04:19:51;114490.28;;;-146.31;57.13
31195;BME280;17819;36.316;-93.164;2022-07-06T04:21:55;114490.28;;;-146.31;57.06
31195;BME280;17819;36.316;-93.164;2022-07-06T04:24:01;114490.28;;;-146.31;56.72
31195;BME280;17819;36.316;-93.164;2022-07-06T04:26:05;114490.28;;;-146.31;56.89
31195;BME280;17819;36.316;-93.164;2022-07-06T04:28:11;114490.28;;;-146.31;57.28
31195;BME280;17819;36.316;-93.164;2022-07-06T04:30:16;114490.28;;;-146.31;57.33
31195;BME280;17819;36.316;-93.164;2022-07-06T04:32:21;114490.28;;;-146.31;57.31
31195;BME280;17819;36.316;-93.164;2022-07-06T04:34:28;114490.28;;;-146.31;57.27
31195;BME280;17819;36.316;-93.164;2022-07-06T04:36:32;114490.28;;;-146.31;55.35
31195;BME280;17819;36.316;-93.164;2022-07-06T04:38:37;114490.28;;;-146.31;55.28
31195;BME280;17819;36.316;-93.164;2022-07-06T04:40:42;114490.28;;;-146.31;55.86
31195;BME280;17819;36.316;-93.164;2022-07-06T04:42:49;114490.28;;;-146.31;55.44
31195;BME280;17819;36.316;-93.164;2022-07-06T04:44:53;114490.28;;;-146.31;55.71
31195;BME280;17819;36.316;-93.164;2022-07-06T04:46:57;114490.28;;;-146.31;56.03
31195;BME280;17819;36.316;-93.164;2022-07-06T04:49:02;114490.28;;;-146.31;56.42
31195;BME280;17819;36.316;-93.164;2022-07-06T04:51:06;114490.28;;;-146.31;55.48
31195;BME280;17819;36.316;-93.164;2022-07-06T04:53:10;114490.28;;;-146.31;55.53
31195;BME280;17819;36.316;-93.164;2022-07-06T04:55:15;114490.28;;;-146.31;55.53
31195;BME280;17819;36.316;-93.164;2022-07-06T04:57:21;114490.28;;;-146.31;56.05
31195;BME280;17819;36.316;-93.164;2022-07-06T04:59:28;114490.28;;;-146.31;55.39
31195;BME280;17819;36.316;-93.164;2022-07-06T05:01:33;114490.28;;;-146.31;56.07
31195;BME280;17819;36.316;-93.164;2022-07-06T05:03:45;114490.28;;;-146.31;55.93
31195;BME280;17819;36.316;-93.164;2022-07-06T05:05:49;114490.28;;;-146.31;56.28
31195;BME280;17819;36.316;-93.164;2022-07-06T05:07:57;114490.28;;;-146.31;55.72
31195;BME280;17819;36.316;-93.164;2022-07-06T05:10:02;114490.28;;;-146.31;56.00
31195;BME280;17819;36.316;-93.164;2022-07-06T05:12:08;114490.28;;;-146.31;56.41
31195;BME280;17819;36.316;-93.164;2022-07-06T05:14:11;114490.28;;;-146.31;55.52
31195;BME280;17819;36.316;-93.164;2022-07-06T05:16:16;114490.28;;;-146.31;56.00
31195;BME280;17819;36.316;-93.164;2022-07-06T05:18:21;114490.28;;;-146.31;56.90
31195;BME280;17819;36.316;-93.164;2022-07-06T05:20:26;114490.28;;;-146.31;56.73
31195;BME280;17819;36.316;-93.164;2022-07-06T05:22:31;114490.28;;;-146.31;56.79
31195;BME280;17819;36.316;-93.164;2022-07-06T05:24:35;114490.28;;;-146.31;57.06
31195;BME280;17819;36.316;-93.164;2022-07-06T05:26:39;114490.28;;;-146.31;57.19
31195;BME280;17819;36.316;-93.164;2022-07-06T05:28:43;114490.28;;;-146.31;57.91
31195;BME280;17819;36.316;-93.164;2022-07-06T05:30:50;114490.28;;;-146.31;57.27
31195;BME280;17819;36.316;-93.164;2022-07-06T05:32:54;114490.28;;;-146.31;57.47
31195;BME280;17819;36.316;-93.164;2022-07-06T05:34:58;114490.28;;;-146.31;57.87
31195;BME280;17819;36.316;-93.164;2022-07-06T05:37:23;114490.28;;;-146.31;57.47
31195;BME280;17819;36.316;-93.164;2022-07-06T05:39:27;114490.28;;;-146.31;57.58
31195;BME280;17819;36.316;-93.164;2022-07-06T05:41:31;114490.28;;;-146.31;57.36
31195;BME280;17819;36.316;-93.164;2022-07-06T05:43:36;114490.28;;;-146.31;57.50
31195;BME280;17819;36.316;-93.164;2022-07-06T05:45:40;114490.28;;;-146.31;57.57
31195;BME280;17819;36.316;-93.164;2022-07-06T05:47:44;114490.28;;;-146.31;57.47
31195;BME280;17819;36.316;-93.164;2022-07-06T05:50:09;114490.28;;;-146.31;57.17
31195;BME280;17819;36.316;-93.164;2022-07-06T05:52:23;114490.28;;;-146.31;57.28
31195;BME280;17819;36.316;-93.164;2022-07-06T05:54:27;114490.28;;;-146.31;57.72
31195;BME280;17819;36.316;-93.164;2022-07-06T05:56:32;114490.28;;;-146.31;57.19
31195;BME280;17819;36.316;-93.164;2022-07-06T05:58:37;114490.28;;;-146.31;57.70
31195;BME280;17819;36.316;-93.164;2022-07-06T06:00:43;114490.28;;;-146.31;57.52
31195;BME280;17819;36.316;-93.164;2022-07-06T06:02:53;114490.28;;;-146.31;57.87
31195;BME280;17819;36.316;-93.164;2022-07-06T06:04:59;114490.28;;;-146.31;57.96
31195;BME280;17819;36.316;-93.164;2022-07-06T06:07:04;114490.28;;;-146.31;57.99
31195;BME280;17819;36.316;-93.164;2022-07-06T06:09:08;114490.28;;;-146.31;57.60
31195;BME280;17819;36.316;-93.164;2022-07-06T06:11:12;114490.28;;;-146.31;58.05
31195;BME280;17819;36.316;-93.164;2022-07-06T06:13:23;114490.28;;;-146.31;57.46
31195;BME280;17819;36.316;-93.164;2022-07-06T06:15:27;114490.28;;;-146.31;57.85
31195;BME280;17819;36.316;-93.164;2022-07-06T06:17:31;114490.28;;;-146.31;57.99
31195;BME280;17819;36.316;-93.164;2022-07-06T06:19:35;114490.28;;;-146.31;57.60
31195;BME280;17819;36.316;-93.164;2022-07-06T06:21:42;114490.28;;;-146.31;57.98
31195;BME280;17819;36.316;-93.164;2022-07-06T06:23:46;114490.28;;;-146.31;58.08
31195;BME280;17819;36.316;-93.164;2022-07-06T06:25:50;114490.28;;;-146.31;57.87
31195;BME280;17819;36.316;-93.164;2022-07-06T06:27:54;114490.28;;;-146.31;58.37
31195;BME280;17819;36.316;-93.164;2022-07-06T06:29:57;114490.28;;;-146.31;57.83
31195;BME280;17819;36.316;-93.164;2022-07-06T06:32:02;114490.28;;;-146.31;58.02
31195;BME280;17819;36.316;-93.164;2022-07-06T06:34:05;114490.28;;;-146.31;57.91
31195;BME280;17819;36.316;-93.164;2022-07-06T06:36:10;114490.28;;;-146.31;58.06
31195;BME280;17819;36.316;-93.164;2022-07-06T06:38:14;114490.28;;;-146.31;58.28
31195;BME280;17819;36.316;-93.164;2022-07-06T06:40:23;114490.28;;;-146.31;57.94
31195;BME280;17819;36.316;-93.164;2022-07-06T06:42:27;114490.28;;;-146.31;57.74
31195;BME280;17819;36.316;-93.164;2022-07-06T06:44:32;114490.28;;;-146.31;58.23
31195;BME280;17819;36.316;-93.164;2022-07-06T06:46:35;114490.28;;;-146.31;58.53
31195;BME280;17819;36.316;-93.164;2022-07-06T06:48:41;114490.28;;;-146.31;58.12
31195;BME280;17819;36.316;-93.164;2022-07-06T06:50:46;114490.28;;;-146.31;58.58
31195;BME280;17819;36.316;-93.164;2022-07-06T06:52:51;114490.28;;;-146.31;58.98
31195;BME280;17819;36.316;-93.164;2022-07-06T06:54:57;114490.28;;;-146.31;58.14
31195;BME280;17819;36.316;-93.164;2022-07-06T06:57:01;114490.28;;;-146.31;58.97
31195;BME280;17819;36.316;-93.164;2022-07-06T06:59:04;114490.28;;;-146.31;58.83
31195;BME280;17819;36.316;-93.164;2022-07-06T07:01:19;114490.28;;;-146.31;58.97
31195;BME280;17819;36.316;-93.164;2022-07-06T07:03:22;114490.28;;;-146.31;59.30
31195;BME280;17819;36.316;-93.164;2022-07-06T07:05:26;114490.28;;;-146.31;59.19
31195;BME280;17819;36.316;-93.164;2022-07-06T07:07:30;114490.28;;;-146.31;59.27
31195;BME280;17819;36.316;-93.164;2022-07-06T07:09:34;114490.28;;;-146.31;59.15
31195;BME280;17819;36.316;-93.164;2022-07-06T07:11:38;114490.28;;;-146.31;59.15
31195;BME280;17819;36.316;-93.164;2022-07-06T07:13:42;114490.28;;;-146.31;59.29
31195;BME280;17819;36.316;-93.164;2022-07-06T07:15:47;114490.28;;;-146.31;59.40
31195;BME280;17819;36.316;-93.164;2022-07-06T07:17:51;114490.28;;;-146.31;59.82
31195;BME280;17819;36.316;-93.164;2022-07-06T07:19:55;114490.28;;;-146.31;60.31
31195;BME280;17819;36.316;-93.164;2022-07-06T07:22:00;114490.28;;;-146.31;59.86
31195;BME280;17819;36.316;-93.164;2022-07-06T07:24:04;114490.28;;;-146.31;60.17
31195;BME280;17819;36.316;-93.164;2022-07-06T07:26:11;114490.28;;;-146.31;60.89
31195;BME280;17819;36.316;-93.164;2022-07-06T07:28:15;114490.28;;;-146.31;60.64
31195;BME280;17819;36.316;-93.164;2022-07-06T07:30:19;114490.28;;;-146.31;60.89
31195;BME280;17819;36.316;-93.164;2022-07-06T07:32:23;114490.28;;;-146.31;61.30
31195;BME280;17819;36.316;-93.164;2022-07-06T07:34:27;114490.28;;;-146.31;61.03
31195;BME280;17819;36.316;-93.164;2022-07-06T07:36:31;114490.28;;;-146.31;60.87
31195;BME280;17819;36.316;-93.164;2022-07-06T07:38:34;114490.28;;;-146.31;61.88
31195;BME280;17819;36.316;-93.164;2022-07-06T07:40:38;114490.28;;;-146.31;62.34
31195;BME280;17819;36.316;-93.164;2022-07-06T07:42:42;114490.28;;;-146.31;62.07
31195;BME280;17819;36.316;-93.164;2022-07-06T07:44:47;114490.28;;;-146.31;62.64
31195;BME280;17819;36.316;-93.164;2022-07-06T07:46:51;114490.28;;;-146.31;62.21
31195;BME280;17819;36.316;-93.164;2022-07-06T07:48:55;114490.28;;;-146.31;62.79
31195;BME280;17819;36.316;-93.164;2022-07-06T07:51:00;114490.28;;;-146.31;62.36
31195;BME280;17819;36.316;-93.164;2022-07-06T07:53:04;114490.28;;;-146.31;62.85
31195;BME280;17819;36.316;-93.164;2022-07-06T07:55:08;114490.28;;;-146.31;63.03
31195;BME280;17819;36.316;-93.164;2022-07-06T07:57:32;114490.28;;;-146.31;63.62
31195;BME280;17819;36.316;-93.164;2022-07-06T07:59:36;114490.28;;;-146.31;63.71
31195;BME280;17819;36.316;-93.164;2022-07-06T08:01:40;114490.28;;;-146.31;63.78
31195;BME280;17819;36.316;-93.164;2022-07-06T08:03:45;114490.28;;;-146.31;64.18
31195;BME280;17819;36.316;-93.164;2022-07-06T08:05:49;114490.28;;;-146.31;64.51
31195;BME280;17819;36.316;-93.164;2022-07-06T08:07:54;114490.28;;;-146.31;64.91
31195;BME280;17819;36.316;-93.164;2022-07-06T08:09:58;114490.28;;;-146.31;65.25
31195;BME280;17819;36.316;-93.164;2022-07-06T08:12:01;114490.28;;;-146.31;65.63
31195;BME280;17819;36.316;-93.164;2022-07-06T08:14:08;114490.28;;;-146.31;66.07
31195;BME280;17819;36.316;-93.164;2022-07-06T08:16:13;114490.28;;;-146.31;66.17
31195;BME280;17819;36.316;-93.164;2022-07-06T08:18:17;114490.28;;;-146.31;67.06
31195;BME280;17819;36.316;-93.164;2022-07-06T08:20:21;114490.28;;;-146.31;66.60
31195;BME280;17819;36.316;-93.164;2022-07-06T08:22:26;114490.28;;;-146.31;67.39
31195;BME280;17819;36.316;-93.164;2022-07-06T08:24:33;114490.28;;;-146.31;67.71
31195;BME280;17819;36.316;-93.164;2022-07-06T08:26:37;114490.28;;;-146.31;67.62
31195;BME280;17819;36.316;-93.164;2022-07-06T08:28:41;114490.28;;;-146.31;67.98
31195;BME280;17819;36.316;-93.164;2022-07-06T08:30:45;114490.28;;;-146.31;67.94
31195;BME280;17819;36.316;-93.164;2022-07-06T08:32:51;114490.28;;;-146.31;68.22
31195;BME280;17819;36.316;-93.164;2022-07-06T08:35:09;114490.28;;;-146.31;68.34
31195;BME280;17819;36.316;-93.164;2022-07-06T08:37:14;114490.28;;;-146.31;68.70
31195;BME280;17819;36.316;-93.164;2022-07-06T08:39:17;114490.28;;;-146.31;69.11
31195;BME280;17819;36.316;-93.164;2022-07-06T08:41:23;114490.28;;;-146.31;68.82
31195;BME280;17819;36.316;-93.164;2022-07-06T08:43:27;114490.28;;;-146.31;69.16
31195;BME280;17819;36.316;-93.164;2022-07-06T08:45:31;114490.28;;;-146.31;69.41
31195;BME280;17819;36.316;-93.164;2022-07-06T08:47:37;114490.28;;;-146.31;69.60
31195;BME280;17819;36.316;-93.164;2022-07-06T08:49:42;114490.28;;;-146.31;69.72
31195;BME280;17819;36.316;-93.164;2022-07-06T08:51:46;114490.28;;;-146.31;69.94
31195;BME280;17819;36.316;-93.164;2022-07-06T08:53:51;114490.28;;;-146.31;70.29
31195;BME280;17819;36.316;-93.164;2022-07-06T08:55:56;114490.28;;;-146.31;70.23
31195;BME280;17819;36.316;-93.164;2022-07-06T08:58:03;114490.28;;;-146.31;71.00
31195;BME280;17819;36.316;-93.164;2022-07-06T09:00:07;114490.28;;;-146.31;70.59
31195;BME280;17819;36.316;-93.164;2022-07-06T09:02:13;114490.28;;;-146.31;71.05
31195;BME280;17819;36.316;-93.164;2022-07-06T09:04:17;114490.28;;;-146.31;71.06
31195;BME280;17819;36.316;-93.164;2022-07-06T09:06:25;114490.28;;;-146.31;71.02
31195;BME280;17819;36.316;-93.164;2022-07-06T09:08:29;114490.28;;;-146.31;71.40
31195;BME280;17819;36.316;-93.164;2022-07-06T09:10:34;114490.28;;;-146.31;71.66
31195;BME280;17819;36.316;-93.164;2022-07-06T09:12:38;114490.28;;;-146.31;72.12
31195;BME280;17819;36.316;-93.164;2022-07-06T09:14:45;114490.28;;;-146.31;71.36
31195;BME280;17819;36.316;-93.164;2022-07-06T09:17:01;114490.28;;;-146.31;72.16
31195;BME280;17819;36.316;-93.164;2022-07-06T09:19:06;114490.28;;;-146.31;72.21
31195;BME280;17819;36.316;-93.164;2022-07-06T09:21:11;114490.28;;;-146.31;71.91
31195;BME280;17819;36.316;-93.164;2022-07-06T09:23:15;114490.28;;;-146.31;71.83
31195;BME280;17819;36.316;-93.164;2022-07-06T09:25:20;114490.28;;;-146.31;72.16
31195;BME280;17819;36.316;-93.164;2022-07-06T09:27:24;114490.28;;;-146.31;72.79
31195;BME280;17819;36.316;-93.164;2022-07-06T09:29:29;114490.28;;;-146.31;72.45
31195;BME280;17819;36.316;-93.164;2022-07-06T09:31:33;114490.28;;;-146.31;72.76
31195;BME280;17819;36.316;-93.164;2022-07-06T09:33:37;114490.28;;;-146.31;73.23
31195;BME280;17819;36.316;-93.164;2022-07-06T09:35:47;114490.28;;;-146.31;73.33
31195;BME280;17819;36.316;-93.164;2022-07-06T09:38:05;114490.28;;;-146.31;73.14
31195;BME280;17819;36.316;-93.164;2022-07-06T09:40:16;114490.28;;;-146.31;73.54
31195;BME280;17819;36.316;-93.164;2022-07-06T09:42:24;114490.28;;;-146.31;73.84
31195;BME280;17819;36.316;-93.164;2022-07-06T09:44:30;114490.28;;;-146.31;74.15
31195;BME280;17819;36.316;-93.164;2022-07-06T09:46:41;114490.28;;;-146.31;74.37
31195;BME280;17819;36.316;-93.164;2022-07-06T09:48:45;114490.28;;;-146.31;74.86
31195;BME280;17819;36.316;-93.164;2022-07-06T09:50:50;114490.28;;;-146.31;74.97
31195;BME280;17819;36.316;-93.164;2022-07-06T09:52:56;114490.28;;;-146.31;75.58
31195;BME280;17819;36.316;-93.164;2022-07-06T09:55:00;114490.28;;;-146.31;75.67
31195;BME280;17819;36.316;-93.164;2022-07-06T09:57:04;114490.28;;;-146.31;75.57
31195;BME280;17819;36.316;-93.164;2022-07-06T09:59:11;114490.28;;;-146.31;75.78
31195;BME280;17819;36.316;-93.164;2022-07-06T10:01:36;114490.28;;;-146.31;76.05
31195;BME280;17819;36.316;-93.164;2022-07-06T10:03:39;114490.28;;;-146.31;75.87
31195;BME280;17819;36.316;-93.164;2022-07-06T10:05:45;114490.28;;;-146.31;75.51
31195;BME280;17819;36.316;-93.164;2022-07-06T10:07:50;114490.28;;;-146.31;76.13
31195;BME280;17819;36.316;-93.164;2022-07-06T10:09:55;114490.28;;;-146.31;75.71
31195;BME280;17819;36.316;-93.164;2022-07-06T10:12:00;114490.28;;;-146.31;75.52
31195;BME280;17819;36.316;-93.164;2022-07-06T10:14:05;114490.28;;;-146.31;75.74
31195;BME280;17819;36.316;-93.164;2022-07-06T10:16:10;114490.28;;;-146.31;75.93
31195;BME280;17819;36.316;-93.164;2022-07-06T10:18:14;114490.28;;;-146.31;76.25
31195;BME280;17819;36.316;-93.164;2022-07-06T10:20:19;114490.28;;;-146.31;76.39
31195;BME280;17819;36.316;-93.164;2022-07-06T10:22:22;114490.28;;;-146.31;75.86
31195;BME280;17819;36.316;-93.164;2022-07-06T10:24:27;114490.28;;;-146.31;75.65